Walker Landing, California
Current Conditions -  °F | °C
As of 1:58 AM on Wednesday 22 Oct 2014 (Local Time) from KSUU Reporting Station
Clear Clear  
Wind Chill: 51°   Ceiling: Unl
Heat Index: 51°   Visibility: 10mi
Dew Point: 50°   Wind: 3mph
Humidity: 97%   Direction: 230°SW
Pressure: 30.02"   Gusts: NA
Location:  38.2298°N, 121.579°W
Report Text: KSUU 220858Z AUTO 23003KT 10SM CLR 10/10 A3002 RMK AO2 SLP172 T01030099 58001 $
Loading
Personal Weather Stations






























Interactive Weather Map
Tropical Storm Tracking
New forecast layout! Learn more

10-Day Weather Forecast

Advertisements
Track Severe Weather on mobile